FIN7BK EFHK-LICC
Flight info
| Callsign | FIN7BK |
|---|---|
| Flight time | 3h 32m |
| Altitude | 34000 |
| Route | KOIVU Y123 LARTI DCT LUTAL DCT BERIL/N0444F330 DCT BOKSU/N0446F340 M857 SUWGI DCT TITUV M985 EVINA DCT LIGDI DCT SKARY DCT VEBAL DCT SIRMI/N0448F350 DCT MOLUX DCT NERAR DCT PELEN DCT UXUTA |
| Aircraft | A321/M-SDE3FGHIRWY/LB1 |
Departure
| Time | 2026-04-21 12:42 |
|---|---|
| Airport | Helsinki Vantaa Airport (EFHK) |
Arrival
| Time | 2026-04-21 16:15 |
|---|---|
| Airport | Catania-Fontanarossa Airport (LICC) |
| Time | Latitude | Longitude | Altitude | Speed | Heading |
|---|---|---|---|---|---|
| 2026-04-21 12:13 | 60.31945 | 24.96680 | 167 ft | 0 kts | 137° |
| 2026-04-21 12:31 | 60.31947 | 24.96676 | 166 ft | 2 kts | 138° |
| 2026-04-21 12:31 | 60.31961 | 24.96652 | 166 ft | 3 kts | 146° |
| 2026-04-21 12:32 | 60.31978 | 24.96634 | 166 ft | 3 kts | 170° |
| 2026-04-21 12:32 | 60.31990 | 24.96631 | 166 ft | 3 kts | 200° |
| 2026-04-21 12:32 | 60.31999 | 24.96641 | 166 ft | 0 kts | 227° |
| 2026-04-21 12:35 | 60.31994 | 24.96630 | 166 ft | 3 kts | 227° |
| 2026-04-21 12:36 | 60.31964 | 24.96562 | 166 ft | 10 kts | 227° |
| 2026-04-21 12:36 | 60.31912 | 24.96448 | 166 ft | 9 kts | 227° |
| 2026-04-21 12:36 | 60.31870 | 24.96351 | 166 ft | 9 kts | 232° |
| 2026-04-21 12:36 | 60.31852 | 24.96225 | 166 ft | 10 kts | 275° |
| 2026-04-21 12:37 | 60.31884 | 24.96110 | 167 ft | 9 kts | 315° |
| 2026-04-21 12:37 | 60.31927 | 24.96003 | 168 ft | 11 kts | 283° |
| 2026-04-21 12:37 | 60.31896 | 24.95888 | 169 ft | 10 kts | 227° |
| 2026-04-21 12:37 | 60.31844 | 24.95772 | 169 ft | 13 kts | 228° |
| 2026-04-21 12:38 | 60.31777 | 24.95622 | 170 ft | 16 kts | 227° |
| 2026-04-21 12:38 | 60.31695 | 24.95444 | 171 ft | 18 kts | 227° |
| 2026-04-21 12:38 | 60.31607 | 24.95249 | 170 ft | 19 kts | 228° |
| 2026-04-21 12:38 | 60.31517 | 24.95051 | 169 ft | 19 kts | 227° |
| 2026-04-21 12:39 | 60.31423 | 24.94842 | 166 ft | 21 kts | 227° |
| 2026-04-21 12:39 | 60.31317 | 24.94610 | 160 ft | 24 kts | 227° |
| 2026-04-21 12:39 | 60.31224 | 24.94406 | 159 ft | 18 kts | 227° |
| 2026-04-21 12:39 | 60.31137 | 24.94216 | 157 ft | 19 kts | 227° |
| 2026-04-21 12:40 | 60.31064 | 24.94055 | 158 ft | 12 kts | 227° |
| 2026-04-21 12:40 | 60.31031 | 24.93915 | 158 ft | 11 kts | 270° |
| 2026-04-21 12:40 | 60.31065 | 24.93781 | 159 ft | 11 kts | 315° |
| 2026-04-21 12:40 | 60.31121 | 24.93687 | 157 ft | 4 kts | 324° |
| 2026-04-21 12:41 | 60.31148 | 24.93682 | 158 ft | 4 kts | 12° |
| 2026-04-21 12:41 | 60.31163 | 24.93710 | 158 ft | 3 kts | 48° |
| 2026-04-21 12:41 | 60.31175 | 24.93736 | 158 ft | 3 kts | 47° |
| 2026-04-21 12:41 | 60.31284 | 24.93975 | 159 ft | 56 kts | 47° |
| 2026-04-21 12:42 | 60.31690 | 24.94869 | 170 ft | 117 kts | 47° |
| 2026-04-21 12:42 | 60.32364 | 24.96349 | 178 ft | 168 kts | 47° |
| 2026-04-21 12:42 | 60.33214 | 24.98207 | 569 ft | 180 kts | 46° |
| 2026-04-21 12:42 | 60.34056 | 25.00052 | 1275 ft | 180 kts | 45° |
| 2026-04-21 12:43 | 60.34929 | 25.01978 | 1634 ft | 194 kts | 45° |
| 2026-04-21 12:43 | 60.35881 | 25.04084 | 1765 ft | 214 kts | 46° |
| 2026-04-21 12:43 | 60.36934 | 25.06416 | 1901 ft | 236 kts | 46° |
| 2026-04-21 12:43 | 60.38090 | 25.08970 | 2274 ft | 252 kts | 46° |
| 2026-04-21 12:44 | 60.39102 | 25.11872 | 2880 ft | 259 kts | 69° |
| 2026-04-21 12:44 | 60.39190 | 25.15498 | 3533 ft | 266 kts | 104° |
| 2026-04-21 12:44 | 60.38538 | 25.19019 | 4241 ft | 269 kts | 112° |
| 2026-04-21 12:44 | 60.37736 | 25.22445 | 4922 ft | 271 kts | 114° |
| 2026-04-21 12:45 | 60.36883 | 25.25870 | 5605 ft | 274 kts | 115° |
| 2026-04-21 12:45 | 60.36023 | 25.29319 | 6277 ft | 276 kts | 114° |
| 2026-04-21 12:45 | 60.35070 | 25.32708 | 6928 ft | 281 kts | 126° |
| 2026-04-21 12:45 | 60.33647 | 25.35446 | 7559 ft | 286 kts | 145° |
| 2026-04-21 12:46 | 60.31840 | 25.37158 | 8166 ft | 290 kts | 165° |
| 2026-04-21 12:46 | 60.29824 | 25.37628 | 8748 ft | 295 kts | 180° |
| 2026-04-21 12:46 | 60.27761 | 25.37620 | 9350 ft | 298 kts | 179° |
| 2026-04-21 12:46 | 60.25684 | 25.37437 | 9931 ft | 301 kts | 189° |
| 2026-04-21 12:47 | 60.23653 | 25.36336 | 10472 ft | 305 kts | 203° |
| 2026-04-21 12:47 | 60.21748 | 25.34221 | 10644 ft | 323 kts | 219° |
| 2026-04-21 12:47 | 60.20029 | 25.31140 | 10781 ft | 340 kts | 225° |
| 2026-04-21 12:47 | 60.18251 | 25.27803 | 10911 ft | 359 kts | 224° |
| 2026-04-21 12:48 | 60.16384 | 25.24336 | 11237 ft | 369 kts | 224° |
| 2026-04-21 12:48 | 60.14481 | 25.20836 | 11736 ft | 373 kts | 224° |
| 2026-04-21 12:48 | 60.12552 | 25.17308 | 12264 ft | 378 kts | 224° |
| 2026-04-21 12:48 | 60.10598 | 25.13751 | 12801 ft | 380 kts | 224° |
| 2026-04-21 12:49 | 60.08628 | 25.10169 | 13295 ft | 385 kts | 224° |
| 2026-04-21 12:49 | 60.06638 | 25.06550 | 13803 ft | 388 kts | 224° |
| 2026-04-21 12:49 | 60.04631 | 25.02900 | 14326 ft | 391 kts | 224° |
| 2026-04-21 12:49 | 60.02611 | 24.99226 | 14826 ft | 395 kts | 224° |
| 2026-04-21 12:50 | 60.00573 | 24.95522 | 15327 ft | 398 kts | 224° |
| 2026-04-21 12:50 | 59.98511 | 24.91780 | 15810 ft | 402 kts | 224° |
| 2026-04-21 12:50 | 59.96429 | 24.88016 | 16269 ft | 406 kts | 224° |
| 2026-04-21 12:50 | 59.94330 | 24.84228 | 16757 ft | 408 kts | 224° |
| 2026-04-21 12:51 | 59.92215 | 24.80413 | 17214 ft | 412 kts | 224° |
| 2026-04-21 12:51 | 59.90084 | 24.76579 | 17700 ft | 414 kts | 224° |
| 2026-04-21 12:51 | 59.87934 | 24.72718 | 18148 ft | 418 kts | 223° |
| 2026-04-21 12:51 | 59.85634 | 24.69144 | 18591 ft | 422 kts | 213° |
| 2026-04-21 12:52 | 59.83038 | 24.66370 | 19035 ft | 425 kts | 203° |
| 2026-04-21 12:52 | 59.80229 | 24.64505 | 19461 ft | 428 kts | 192° |
| 2026-04-21 12:52 | 59.77319 | 24.63160 | 19902 ft | 430 kts | 192° |
| 2026-04-21 12:52 | 59.74396 | 24.61802 | 20338 ft | 433 kts | 192° |
| 2026-04-21 12:53 | 59.71453 | 24.60420 | 20774 ft | 436 kts | 192° |
| 2026-04-21 12:53 | 59.68496 | 24.59019 | 21189 ft | 438 kts | 192° |
| 2026-04-21 12:53 | 59.65521 | 24.57637 | 21565 ft | 441 kts | 192° |
| 2026-04-21 12:53 | 59.62511 | 24.56353 | 21940 ft | 443 kts | 191° |
| 2026-04-21 12:54 | 59.59483 | 24.55158 | 22298 ft | 446 kts | 190° |
| 2026-04-21 12:54 | 59.56424 | 24.54007 | 22663 ft | 448 kts | 189° |
| 2026-04-21 12:54 | 59.53354 | 24.52866 | 23025 ft | 450 kts | 189° |
| 2026-04-21 12:54 | 59.50272 | 24.51702 | 23370 ft | 452 kts | 189° |
| 2026-04-21 12:55 | 59.47171 | 24.50506 | 23699 ft | 455 kts | 190° |
| 2026-04-21 12:55 | 59.44059 | 24.49283 | 24028 ft | 457 kts | 190° |
| 2026-04-21 12:55 | 59.40931 | 24.48042 | 24358 ft | 459 kts | 190° |
| 2026-04-21 12:55 | 59.37792 | 24.46796 | 24677 ft | 461 kts | 190° |
| 2026-04-21 12:56 | 59.34637 | 24.45543 | 24979 ft | 464 kts | 190° |
| 2026-04-21 12:56 | 59.31466 | 24.44295 | 25269 ft | 466 kts | 189° |
| 2026-04-21 12:56 | 59.28275 | 24.43058 | 25582 ft | 468 kts | 189° |
| 2026-04-21 12:56 | 59.25075 | 24.41831 | 25887 ft | 470 kts | 189° |
| 2026-04-21 12:57 | 59.21859 | 24.40595 | 26175 ft | 472 kts | 189° |
| 2026-04-21 12:57 | 59.18633 | 24.39350 | 26464 ft | 474 kts | 189° |
| 2026-04-21 12:57 | 59.15392 | 24.38097 | 26748 ft | 476 kts | 189° |
| 2026-04-21 12:57 | 59.12137 | 24.36841 | 27017 ft | 478 kts | 189° |
| 2026-04-21 12:58 | 59.08871 | 24.35588 | 27285 ft | 480 kts | 189° |
| 2026-04-21 12:58 | 59.05587 | 24.34331 | 27538 ft | 482 kts | 189° |
| 2026-04-21 12:58 | 59.02291 | 24.33067 | 27797 ft | 484 kts | 189° |
| 2026-04-21 12:58 | 58.98987 | 24.31804 | 28047 ft | 485 kts | 189° |
| 2026-04-21 12:59 | 58.95663 | 24.30543 | 28302 ft | 487 kts | 189° |
| 2026-04-21 12:59 | 58.92331 | 24.29281 | 28548 ft | 489 kts | 189° |
| 2026-04-21 12:59 | 58.88985 | 24.28008 | 28799 ft | 491 kts | 189° |
| 2026-04-21 12:59 | 58.85626 | 24.26730 | 29038 ft | 493 kts | 189° |
| 2026-04-21 13:00 | 58.82261 | 24.25453 | 29338 ft | 493 kts | 189° |
| 2026-04-21 13:00 | 58.78901 | 24.24181 | 29705 ft | 492 kts | 188° |
| 2026-04-21 13:00 | 58.75548 | 24.22912 | 30038 ft | 491 kts | 188° |
| 2026-04-21 13:00 | 58.72198 | 24.21647 | 30354 ft | 490 kts | 188° |
| 2026-04-21 13:01 | 58.68850 | 24.20386 | 30657 ft | 490 kts | 188° |
| 2026-04-21 13:01 | 58.65505 | 24.19134 | 30958 ft | 490 kts | 188° |
| 2026-04-21 13:01 | 58.62161 | 24.17885 | 31247 ft | 489 kts | 188° |
| 2026-04-21 13:01 | 58.58820 | 24.16640 | 31536 ft | 489 kts | 188° |
| 2026-04-21 13:02 | 58.55478 | 24.15397 | 31812 ft | 489 kts | 188° |
| 2026-04-21 13:02 | 58.52141 | 24.14159 | 32076 ft | 489 kts | 188° |
| 2026-04-21 13:02 | 58.45461 | 24.11683 | 32590 ft | 489 kts | 188° |
| 2026-04-21 13:03 | 58.42122 | 24.10447 | 32834 ft | 489 kts | 188° |
| 2026-04-21 13:03 | 58.38782 | 24.09217 | 33082 ft | 489 kts | 188° |
| 2026-04-21 13:03 | 58.35445 | 24.07992 | 33324 ft | 488 kts | 188° |
| 2026-04-21 13:03 | 58.32109 | 24.06771 | 33561 ft | 488 kts | 188° |
| 2026-04-21 13:04 | 58.28773 | 24.05552 | 33790 ft | 488 kts | 188° |
| 2026-04-21 13:04 | 58.25440 | 24.04336 | 34006 ft | 488 kts | 188° |
| 2026-04-21 13:04 | 58.22104 | 24.03115 | 34146 ft | 489 kts | 188° |
| 2026-04-21 13:04 | 58.18761 | 24.01891 | 34178 ft | 489 kts | 188° |
| 2026-04-21 13:05 | 58.12086 | 23.99462 | 34174 ft | 488 kts | 188° |
| 2026-04-21 13:05 | 58.05407 | 23.97045 | 34175 ft | 488 kts | 188° |
| 2026-04-21 13:06 | 57.98736 | 23.94651 | 34183 ft | 488 kts | 188° |
| 2026-04-21 13:06 | 57.92057 | 23.92247 | 34183 ft | 489 kts | 188° |
| 2026-04-21 13:07 | 57.85375 | 23.89891 | 34188 ft | 488 kts | 187° |
| 2026-04-21 13:07 | 57.78682 | 23.87698 | 34192 ft | 488 kts | 187° |
| 2026-04-21 13:08 | 57.71989 | 23.85556 | 34194 ft | 488 kts | 187° |
| 2026-04-21 13:08 | 57.65294 | 23.83377 | 34200 ft | 488 kts | 187° |
| 2026-04-21 13:09 | 57.58612 | 23.81182 | 34198 ft | 488 kts | 187° |
| 2026-04-21 13:09 | 57.51971 | 23.79015 | 34196 ft | 488 kts | 187° |
| 2026-04-21 13:10 | 57.45284 | 23.76841 | 34206 ft | 488 kts | 187° |
| 2026-04-21 13:10 | 57.38603 | 23.74688 | 34202 ft | 487 kts | 187° |
| 2026-04-21 13:11 | 57.31926 | 23.72554 | 34209 ft | 487 kts | 187° |
| 2026-04-21 13:11 | 57.25247 | 23.70418 | 34208 ft | 487 kts | 187° |
| 2026-04-21 13:12 | 57.18573 | 23.68281 | 34208 ft | 487 kts | 187° |
| 2026-04-21 13:12 | 57.11888 | 23.66156 | 34209 ft | 487 kts | 187° |
| 2026-04-21 13:13 | 57.05208 | 23.64043 | 34204 ft | 487 kts | 187° |
| 2026-04-21 13:13 | 56.98530 | 23.61935 | 34210 ft | 487 kts | 187° |
| 2026-04-21 13:14 | 56.91854 | 23.59828 | 34210 ft | 487 kts | 187° |
| 2026-04-21 13:14 | 56.85180 | 23.57731 | 34206 ft | 487 kts | 187° |
| 2026-04-21 13:15 | 56.78499 | 23.55648 | 34207 ft | 487 kts | 187° |
| 2026-04-21 13:15 | 56.72913 | 23.53909 | 34213 ft | 486 kts | 187° |
| 2026-04-21 13:16 | 56.65164 | 23.51503 | 34211 ft | 486 kts | 187° |
| 2026-04-21 13:16 | 56.59582 | 23.49784 | 34210 ft | 486 kts | 187° |
| 2026-04-21 13:17 | 56.52917 | 23.47720 | 34209 ft | 486 kts | 187° |
| 2026-04-21 13:17 | 56.46258 | 23.45675 | 34206 ft | 485 kts | 187° |
| 2026-04-21 13:18 | 56.39595 | 23.43646 | 34210 ft | 485 kts | 187° |
| 2026-04-21 13:18 | 56.32924 | 23.41785 | 34211 ft | 484 kts | 185° |
| 2026-04-21 13:19 | 56.26223 | 23.40534 | 34208 ft | 484 kts | 182° |
| 2026-04-21 13:19 | 56.19525 | 23.39461 | 34219 ft | 483 kts | 182° |
| 2026-04-21 13:20 | 56.12836 | 23.38300 | 34211 ft | 483 kts | 183° |
| 2026-04-21 13:20 | 56.06151 | 23.37044 | 34207 ft | 483 kts | 184° |
| 2026-04-21 13:21 | 55.99514 | 23.35780 | 34206 ft | 484 kts | 184° |
| 2026-04-21 13:21 | 55.92824 | 23.34530 | 34209 ft | 483 kts | 184° |
| 2026-04-21 13:22 | 55.86144 | 23.33318 | 34211 ft | 482 kts | 183° |
| 2026-04-21 13:22 | 55.79468 | 23.32103 | 34215 ft | 482 kts | 183° |
| 2026-04-21 13:23 | 55.72798 | 23.30894 | 34203 ft | 482 kts | 183° |
| 2026-04-21 13:23 | 55.66135 | 23.29688 | 34201 ft | 482 kts | 184° |
| 2026-04-21 13:24 | 55.59470 | 23.28477 | 34202 ft | 481 kts | 184° |
| 2026-04-21 13:24 | 55.52803 | 23.27262 | 34204 ft | 481 kts | 184° |
| 2026-04-21 13:25 | 55.46141 | 23.26057 | 34200 ft | 481 kts | 183° |
| 2026-04-21 13:25 | 55.39473 | 23.24862 | 34201 ft | 482 kts | 184° |
| 2026-04-21 13:26 | 55.32804 | 23.23669 | 34202 ft | 481 kts | 183° |
| 2026-04-21 13:26 | 55.26143 | 23.22486 | 34199 ft | 481 kts | 183° |
| 2026-04-21 13:27 | 55.19478 | 23.21312 | 34198 ft | 481 kts | 183° |
| 2026-04-21 13:27 | 55.12808 | 23.20143 | 34199 ft | 481 kts | 184° |
| 2026-04-21 13:28 | 55.06152 | 23.18959 | 34200 ft | 481 kts | 184° |
| 2026-04-21 13:28 | 54.99498 | 23.17779 | 34200 ft | 480 kts | 184° |
| 2026-04-21 13:29 | 54.92844 | 23.16611 | 34196 ft | 481 kts | 184° |
| 2026-04-21 13:29 | 54.86188 | 23.15444 | 34189 ft | 481 kts | 184° |
| 2026-04-21 13:30 | 54.79535 | 23.14288 | 34181 ft | 480 kts | 184° |
| 2026-04-21 13:30 | 54.72888 | 23.13140 | 34179 ft | 480 kts | 184° |
| 2026-04-21 13:31 | 54.66236 | 23.11996 | 34180 ft | 480 kts | 184° |
| 2026-04-21 13:31 | 54.59587 | 23.10850 | 34181 ft | 480 kts | 184° |
| 2026-04-21 13:32 | 54.52941 | 23.09704 | 34180 ft | 480 kts | 184° |
| 2026-04-21 13:32 | 54.46293 | 23.08572 | 34178 ft | 480 kts | 184° |
| 2026-04-21 13:33 | 54.39650 | 23.07435 | 34175 ft | 480 kts | 184° |
| 2026-04-21 13:33 | 54.33008 | 23.06262 | 34172 ft | 481 kts | 187° |
| 2026-04-21 13:34 | 54.26616 | 23.03154 | 34173 ft | 482 kts | 200° |
| 2026-04-21 13:34 | 54.20381 | 22.98952 | 34171 ft | 482 kts | 200° |
| 2026-04-21 13:35 | 54.14133 | 22.94782 | 34168 ft | 482 kts | 200° |
| 2026-04-21 13:35 | 54.07894 | 22.90596 | 34166 ft | 482 kts | 204° |
| 2026-04-21 13:36 | 54.02035 | 22.85017 | 34168 ft | 483 kts | 211° |
| 2026-04-21 13:36 | 53.96272 | 22.79165 | 34174 ft | 483 kts | 210° |
| 2026-04-21 13:37 | 53.90505 | 22.73343 | 34176 ft | 482 kts | 210° |
| 2026-04-21 13:37 | 53.84748 | 22.67548 | 34177 ft | 481 kts | 210° |
| 2026-04-21 13:38 | 53.78988 | 22.61769 | 34174 ft | 481 kts | 210° |
| 2026-04-21 13:38 | 53.73232 | 22.56014 | 34174 ft | 481 kts | 210° |
| 2026-04-21 13:39 | 53.67478 | 22.50271 | 34174 ft | 480 kts | 210° |
| 2026-04-21 13:39 | 53.61721 | 22.44551 | 34173 ft | 480 kts | 210° |
| 2026-04-21 13:40 | 53.55968 | 22.38840 | 34172 ft | 480 kts | 210° |
| 2026-04-21 13:40 | 53.50207 | 22.33151 | 34168 ft | 480 kts | 210° |
| 2026-04-21 13:41 | 53.44441 | 22.27473 | 34163 ft | 480 kts | 210° |
| 2026-04-21 13:41 | 53.38675 | 22.21818 | 34158 ft | 480 kts | 210° |
| 2026-04-21 13:42 | 53.32909 | 22.16188 | 34157 ft | 480 kts | 210° |
| 2026-04-21 13:42 | 53.27145 | 22.10572 | 34155 ft | 479 kts | 210° |
| 2026-04-21 13:43 | 53.21382 | 22.04973 | 34156 ft | 479 kts | 210° |
| 2026-04-21 13:43 | 53.15628 | 21.99398 | 34158 ft | 478 kts | 210° |
| 2026-04-21 13:44 | 53.09875 | 21.93822 | 34159 ft | 478 kts | 209° |
| 2026-04-21 13:44 | 53.04115 | 21.88283 | 34160 ft | 478 kts | 209° |
| 2026-04-21 13:45 | 52.98352 | 21.82761 | 34162 ft | 478 kts | 209° |
| 2026-04-21 13:45 | 52.92598 | 21.77259 | 34160 ft | 477 kts | 209° |
| 2026-04-21 13:46 | 52.86841 | 21.71760 | 34162 ft | 478 kts | 209° |
| 2026-04-21 13:46 | 52.81083 | 21.66289 | 34162 ft | 477 kts | 208° |
| 2026-04-21 13:47 | 52.75328 | 21.60826 | 34163 ft | 477 kts | 209° |
| 2026-04-21 13:47 | 52.69569 | 21.55379 | 34165 ft | 477 kts | 208° |
| 2026-04-21 13:48 | 52.63818 | 21.49960 | 34162 ft | 476 kts | 208° |
| 2026-04-21 13:48 | 52.58066 | 21.44560 | 34157 ft | 476 kts | 208° |
| 2026-04-21 13:49 | 52.52312 | 21.39169 | 34153 ft | 476 kts | 208° |
| 2026-04-21 13:49 | 52.46556 | 21.33782 | 34152 ft | 476 kts | 208° |
| 2026-04-21 13:50 | 52.40795 | 21.28417 | 34148 ft | 476 kts | 208° |
| 2026-04-21 13:50 | 52.35038 | 21.23071 | 34148 ft | 476 kts | 208° |
| 2026-04-21 13:51 | 52.29270 | 21.17735 | 34153 ft | 476 kts | 208° |
| 2026-04-21 13:51 | 52.23499 | 21.12413 | 34154 ft | 476 kts | 208° |
| 2026-04-21 13:52 | 52.17731 | 21.07101 | 34152 ft | 476 kts | 208° |
| 2026-04-21 13:52 | 52.11962 | 21.01809 | 34150 ft | 476 kts | 208° |
| 2026-04-21 13:53 | 52.06197 | 20.96523 | 34153 ft | 476 kts | 208° |
| 2026-04-21 13:53 | 52.00419 | 20.91264 | 34152 ft | 476 kts | 207° |
| 2026-04-21 13:54 | 51.94652 | 20.86019 | 34160 ft | 475 kts | 208° |
| 2026-04-21 13:54 | 51.88894 | 20.80788 | 34164 ft | 474 kts | 208° |
| 2026-04-21 13:55 | 51.83144 | 20.75587 | 34162 ft | 473 kts | 208° |
| 2026-04-21 13:55 | 51.77407 | 20.70420 | 34160 ft | 473 kts | 208° |
| 2026-04-21 13:56 | 51.71663 | 20.65257 | 34158 ft | 472 kts | 208° |
| 2026-04-21 13:56 | 51.65925 | 20.60109 | 34154 ft | 472 kts | 208° |
| 2026-04-21 13:57 | 51.60186 | 20.54989 | 34150 ft | 471 kts | 207° |
| 2026-04-21 13:57 | 51.54445 | 20.49885 | 34147 ft | 471 kts | 207° |
| 2026-04-21 13:58 | 51.48706 | 20.44789 | 34142 ft | 471 kts | 207° |
| 2026-04-21 13:58 | 51.43945 | 20.40566 | 34143 ft | 471 kts | 207° |
| 2026-04-21 13:59 | 51.38201 | 20.35508 | 34149 ft | 471 kts | 206° |
| 2026-04-21 13:59 | 51.32337 | 20.30855 | 34150 ft | 470 kts | 204° |
| 2026-04-21 14:00 | 51.26397 | 20.26514 | 34149 ft | 469 kts | 203° |
| 2026-04-21 14:00 | 51.20465 | 20.22163 | 34149 ft | 469 kts | 204° |
| 2026-04-21 14:01 | 51.14567 | 20.17721 | 34153 ft | 469 kts | 204° |
| 2026-04-21 14:01 | 51.08682 | 20.13255 | 34157 ft | 468 kts | 205° |
| 2026-04-21 14:02 | 51.02798 | 20.08825 | 34158 ft | 468 kts | 204° |
| 2026-04-21 14:03 | 50.93970 | 20.02252 | 34158 ft | 467 kts | 204° |
| 2026-04-21 14:03 | 50.88092 | 19.97893 | 34159 ft | 466 kts | 205° |
| 2026-04-21 14:04 | 50.82225 | 19.93533 | 34158 ft | 465 kts | 205° |
| 2026-04-21 14:04 | 50.76361 | 19.89193 | 34158 ft | 465 kts | 205° |
| 2026-04-21 14:05 | 50.70506 | 19.84885 | 34158 ft | 464 kts | 205° |
| 2026-04-21 14:05 | 50.64659 | 19.80577 | 34158 ft | 464 kts | 205° |
| 2026-04-21 14:06 | 50.58822 | 19.76280 | 34157 ft | 463 kts | 205° |
| 2026-04-21 14:06 | 50.52980 | 19.72005 | 34137 ft | 463 kts | 205° |
| 2026-04-21 14:07 | 50.47144 | 19.67745 | 34137 ft | 462 kts | 205° |
| 2026-04-21 14:07 | 50.41312 | 19.63502 | 34137 ft | 462 kts | 205° |
| 2026-04-21 14:08 | 50.35495 | 19.59280 | 34137 ft | 461 kts | 205° |
| 2026-04-21 14:08 | 50.29681 | 19.55075 | 34137 ft | 460 kts | 205° |
| 2026-04-21 14:09 | 50.23834 | 19.50988 | 34136 ft | 460 kts | 204° |
| 2026-04-21 14:09 | 50.17956 | 19.47020 | 34136 ft | 460 kts | 204° |
| 2026-04-21 14:10 | 50.12074 | 19.43052 | 34136 ft | 461 kts | 204° |
| 2026-04-21 14:10 | 50.06205 | 19.39060 | 34141 ft | 461 kts | 204° |
| 2026-04-21 14:11 | 50.00325 | 19.35063 | 34145 ft | 461 kts | 204° |
| 2026-04-21 14:11 | 49.94442 | 19.31083 | 34151 ft | 461 kts | 204° |
| 2026-04-21 14:12 | 49.88568 | 19.27107 | 34156 ft | 460 kts | 205° |
| 2026-04-21 14:12 | 49.82693 | 19.23148 | 34154 ft | 460 kts | 204° |
| 2026-04-21 14:13 | 49.76832 | 19.19213 | 34152 ft | 459 kts | 204° |
| 2026-04-21 14:13 | 49.70974 | 19.15287 | 34147 ft | 459 kts | 204° |
| 2026-04-21 14:14 | 49.65114 | 19.11390 | 34144 ft | 459 kts | 204° |
| 2026-04-21 14:14 | 49.59257 | 19.07487 | 34138 ft | 458 kts | 205° |
| 2026-04-21 14:15 | 49.53399 | 19.03591 | 34137 ft | 458 kts | 204° |
| 2026-04-21 14:15 | 49.47546 | 18.99712 | 34136 ft | 458 kts | 205° |
| 2026-04-21 14:16 | 49.41648 | 18.95988 | 34139 ft | 459 kts | 201° |
| 2026-04-21 14:16 | 49.35606 | 18.92836 | 34137 ft | 459 kts | 199° |
| 2026-04-21 14:17 | 49.29526 | 18.89863 | 34133 ft | 459 kts | 199° |
| 2026-04-21 14:17 | 49.23464 | 18.86800 | 34131 ft | 458 kts | 200° |
| 2026-04-21 14:18 | 49.17426 | 18.83664 | 34127 ft | 458 kts | 200° |
| 2026-04-21 14:18 | 49.11386 | 18.80527 | 34125 ft | 458 kts | 200° |
| 2026-04-21 14:19 | 49.05353 | 18.77419 | 34122 ft | 457 kts | 200° |
| 2026-04-21 14:19 | 48.99322 | 18.74326 | 34120 ft | 457 kts | 200° |
| 2026-04-21 14:20 | 48.93287 | 18.71234 | 34122 ft | 457 kts | 200° |
| 2026-04-21 14:20 | 48.87258 | 18.68157 | 34116 ft | 457 kts | 200° |
| 2026-04-21 14:21 | 48.81224 | 18.65097 | 34116 ft | 457 kts | 201° |
| 2026-04-21 14:21 | 48.75200 | 18.62041 | 34115 ft | 457 kts | 201° |
| 2026-04-21 14:22 | 48.69174 | 18.58990 | 34115 ft | 457 kts | 201° |
| 2026-04-21 14:22 | 48.63140 | 18.55948 | 34117 ft | 457 kts | 201° |
| 2026-04-21 14:23 | 48.57108 | 18.52919 | 34115 ft | 457 kts | 201° |
| 2026-04-21 14:23 | 48.51080 | 18.49885 | 34111 ft | 456 kts | 201° |
| 2026-04-21 14:24 | 48.45059 | 18.46854 | 34110 ft | 456 kts | 201° |
| 2026-04-21 14:24 | 48.39032 | 18.43833 | 34111 ft | 456 kts | 201° |
| 2026-04-21 14:25 | 48.33001 | 18.40831 | 34105 ft | 456 kts | 201° |
| 2026-04-21 14:25 | 48.26977 | 18.37838 | 34104 ft | 456 kts | 201° |
| 2026-04-21 14:26 | 48.20945 | 18.34857 | 34105 ft | 456 kts | 201° |
| 2026-04-21 14:26 | 48.14915 | 18.31871 | 34105 ft | 456 kts | 201° |
| 2026-04-21 14:27 | 48.08888 | 18.28888 | 34103 ft | 456 kts | 201° |
| 2026-04-21 14:27 | 48.02862 | 18.25920 | 34105 ft | 456 kts | 201° |
| 2026-04-21 14:28 | 47.96840 | 18.22958 | 34104 ft | 455 kts | 202° |
| 2026-04-21 14:28 | 47.90825 | 18.20011 | 34101 ft | 455 kts | 201° |
| 2026-04-21 14:29 | 47.84842 | 18.17089 | 34100 ft | 455 kts | 202° |
| 2026-04-21 14:29 | 47.78820 | 18.14155 | 34098 ft | 455 kts | 201° |
| 2026-04-21 14:30 | 47.72801 | 18.11237 | 34096 ft | 455 kts | 201° |
| 2026-04-21 14:30 | 47.66794 | 18.08320 | 34096 ft | 454 kts | 202° |
| 2026-04-21 14:31 | 47.60780 | 18.05401 | 34091 ft | 454 kts | 202° |
| 2026-04-21 14:31 | 47.54767 | 18.02489 | 34097 ft | 455 kts | 202° |
| 2026-04-21 14:32 | 47.48752 | 17.99589 | 34100 ft | 455 kts | 202° |
| 2026-04-21 14:32 | 47.42693 | 17.96684 | 34102 ft | 455 kts | 202° |
| 2026-04-21 14:33 | 47.36721 | 17.93820 | 34102 ft | 454 kts | 202° |
| 2026-04-21 14:33 | 47.30672 | 17.90926 | 34102 ft | 454 kts | 202° |
| 2026-04-21 14:34 | 47.24710 | 17.88081 | 34101 ft | 453 kts | 202° |
| 2026-04-21 14:34 | 47.18715 | 17.85232 | 34098 ft | 452 kts | 203° |
| 2026-04-21 14:35 | 47.12730 | 17.82391 | 34097 ft | 452 kts | 203° |
| 2026-04-21 14:35 | 47.06753 | 17.79559 | 34097 ft | 451 kts | 203° |
| 2026-04-21 14:36 | 47.00778 | 17.76737 | 34098 ft | 451 kts | 204° |
| 2026-04-21 14:36 | 46.94801 | 17.73913 | 34102 ft | 451 kts | 204° |
| 2026-04-21 14:37 | 46.88836 | 17.71098 | 34101 ft | 450 kts | 204° |
| 2026-04-21 14:37 | 46.82874 | 17.68297 | 34100 ft | 450 kts | 204° |
| 2026-04-21 14:38 | 46.76914 | 17.65507 | 34099 ft | 450 kts | 204° |
| 2026-04-21 14:38 | 46.70962 | 17.62722 | 34100 ft | 449 kts | 204° |
| 2026-04-21 14:39 | 46.65010 | 17.59957 | 34101 ft | 449 kts | 205° |
| 2026-04-21 14:39 | 46.59020 | 17.57179 | 34104 ft | 449 kts | 205° |
| 2026-04-21 14:40 | 46.54076 | 17.54878 | 34107 ft | 448 kts | 205° |
| 2026-04-21 14:40 | 46.47173 | 17.51671 | 34102 ft | 448 kts | 205° |
| 2026-04-21 14:41 | 46.41236 | 17.48935 | 34098 ft | 448 kts | 205° |
| 2026-04-21 14:41 | 46.36261 | 17.46653 | 34098 ft | 447 kts | 205° |
| 2026-04-21 14:42 | 46.30328 | 17.43925 | 34088 ft | 447 kts | 205° |
| 2026-04-21 14:42 | 46.24401 | 17.41199 | 34089 ft | 447 kts | 205° |
| 2026-04-21 14:43 | 46.18464 | 17.38477 | 34092 ft | 447 kts | 205° |
| 2026-04-21 14:43 | 46.12529 | 17.35764 | 34090 ft | 447 kts | 205° |
| 2026-04-21 14:44 | 46.06599 | 17.33054 | 34089 ft | 447 kts | 205° |
| 2026-04-21 14:44 | 46.00706 | 17.30379 | 34093 ft | 447 kts | 205° |
| 2026-04-21 14:45 | 45.94794 | 17.27474 | 34089 ft | 444 kts | 209° |
| 2026-04-21 14:45 | 45.89080 | 17.24212 | 34084 ft | 441 kts | 210° |
| 2026-04-21 14:46 | 45.83390 | 17.20906 | 34080 ft | 441 kts | 210° |
| 2026-04-21 14:46 | 45.77669 | 17.17694 | 34075 ft | 442 kts | 209° |
| 2026-04-21 14:47 | 45.71937 | 17.14549 | 34069 ft | 441 kts | 209° |
| 2026-04-21 14:47 | 45.66200 | 17.11406 | 34067 ft | 441 kts | 209° |
| 2026-04-21 14:48 | 45.60477 | 17.08263 | 34065 ft | 441 kts | 209° |
| 2026-04-21 14:48 | 45.54744 | 17.05100 | 34068 ft | 441 kts | 209° |
| 2026-04-21 14:49 | 45.49010 | 17.01954 | 34067 ft | 442 kts | 209° |
| 2026-04-21 14:49 | 45.43263 | 16.98811 | 34069 ft | 442 kts | 209° |
| 2026-04-21 14:50 | 45.37516 | 16.95670 | 34068 ft | 442 kts | 209° |
| 2026-04-21 14:50 | 45.31766 | 16.92534 | 34070 ft | 442 kts | 209° |
| 2026-04-21 14:51 | 45.26057 | 16.89435 | 34070 ft | 442 kts | 209° |
| 2026-04-21 14:51 | 45.20312 | 16.86320 | 34069 ft | 442 kts | 209° |
| 2026-04-21 14:52 | 45.14573 | 16.83221 | 34067 ft | 441 kts | 209° |
| 2026-04-21 14:52 | 45.08829 | 16.80122 | 34066 ft | 442 kts | 209° |
| 2026-04-21 14:53 | 45.03089 | 16.77016 | 34066 ft | 442 kts | 209° |
| 2026-04-21 14:53 | 44.97340 | 16.73917 | 34063 ft | 443 kts | 209° |
| 2026-04-21 14:54 | 44.91576 | 16.70830 | 34070 ft | 443 kts | 208° |
| 2026-04-21 14:54 | 44.85812 | 16.67746 | 34066 ft | 443 kts | 208° |
| 2026-04-21 14:55 | 44.80051 | 16.64665 | 34065 ft | 443 kts | 208° |
| 2026-04-21 14:55 | 44.74291 | 16.61588 | 34059 ft | 442 kts | 208° |
| 2026-04-21 14:56 | 44.68528 | 16.58524 | 34055 ft | 443 kts | 208° |
| 2026-04-21 14:56 | 44.62755 | 16.55453 | 34050 ft | 443 kts | 208° |
| 2026-04-21 14:57 | 44.56979 | 16.52403 | 34048 ft | 444 kts | 208° |
| 2026-04-21 14:57 | 44.51190 | 16.49357 | 34046 ft | 444 kts | 208° |
| 2026-04-21 14:58 | 44.45409 | 16.46305 | 34029 ft | 444 kts | 208° |
| 2026-04-21 14:58 | 44.39627 | 16.43255 | 34035 ft | 444 kts | 208° |
| 2026-04-21 14:59 | 44.33849 | 16.40220 | 34020 ft | 443 kts | 208° |
| 2026-04-21 14:59 | 44.28070 | 16.37198 | 34022 ft | 444 kts | 208° |
| 2026-04-21 15:00 | 44.22287 | 16.34170 | 34012 ft | 444 kts | 208° |
| 2026-04-21 15:00 | 44.16496 | 16.31147 | 34067 ft | 445 kts | 208° |
| 2026-04-21 15:00 | 44.13599 | 16.29632 | 34351 ft | 445 kts | 208° |
| 2026-04-21 15:01 | 44.10712 | 16.28079 | 34659 ft | 444 kts | 209° |
| 2026-04-21 15:01 | 44.07848 | 16.26499 | 34900 ft | 443 kts | 209° |
| 2026-04-21 15:01 | 44.04990 | 16.24900 | 34967 ft | 443 kts | 209° |
| 2026-04-21 15:02 | 43.99279 | 16.21695 | 34970 ft | 442 kts | 209° |
| 2026-04-21 15:02 | 43.93566 | 16.18543 | 34962 ft | 442 kts | 209° |
| 2026-04-21 15:03 | 43.87837 | 16.15412 | 34961 ft | 442 kts | 209° |
| 2026-04-21 15:03 | 43.82112 | 16.12284 | 34961 ft | 442 kts | 209° |
| 2026-04-21 15:04 | 43.76389 | 16.09162 | 34963 ft | 443 kts | 209° |
| 2026-04-21 15:04 | 43.70658 | 16.06039 | 34968 ft | 443 kts | 209° |
| 2026-04-21 15:05 | 43.64928 | 16.02923 | 34966 ft | 443 kts | 209° |
| 2026-04-21 15:05 | 43.56331 | 15.98253 | 34971 ft | 443 kts | 209° |
| 2026-04-21 15:06 | 43.50595 | 15.95152 | 34972 ft | 443 kts | 209° |
| 2026-04-21 15:06 | 43.44862 | 15.92056 | 34968 ft | 443 kts | 209° |
| 2026-04-21 15:07 | 43.39122 | 15.88963 | 34965 ft | 443 kts | 209° |
| 2026-04-21 15:07 | 43.33375 | 15.85879 | 34963 ft | 443 kts | 209° |
| 2026-04-21 15:08 | 43.27632 | 15.82798 | 34966 ft | 443 kts | 209° |
| 2026-04-21 15:08 | 43.21886 | 15.79716 | 34966 ft | 444 kts | 209° |
| 2026-04-21 15:09 | 43.16130 | 15.76642 | 34965 ft | 444 kts | 209° |
| 2026-04-21 15:09 | 43.10383 | 15.73573 | 34964 ft | 443 kts | 209° |
| 2026-04-21 15:10 | 43.04637 | 15.70506 | 34963 ft | 443 kts | 209° |
| 2026-04-21 15:10 | 42.98892 | 15.67456 | 34963 ft | 443 kts | 208° |
| 2026-04-21 15:11 | 42.93178 | 15.64436 | 34959 ft | 443 kts | 208° |
| 2026-04-21 15:11 | 42.87425 | 15.61401 | 34957 ft | 443 kts | 208° |
| 2026-04-21 15:12 | 42.81677 | 15.58360 | 34953 ft | 443 kts | 208° |
| 2026-04-21 15:12 | 42.75926 | 15.55321 | 34952 ft | 443 kts | 208° |
| 2026-04-21 15:13 | 42.70175 | 15.52295 | 34954 ft | 443 kts | 208° |
| 2026-04-21 15:13 | 42.64419 | 15.49276 | 34951 ft | 444 kts | 208° |
| 2026-04-21 15:14 | 42.58659 | 15.46256 | 34959 ft | 444 kts | 208° |
| 2026-04-21 15:14 | 42.52898 | 15.43245 | 34963 ft | 444 kts | 208° |
| 2026-04-21 15:15 | 42.47142 | 15.40249 | 34965 ft | 443 kts | 208° |
| 2026-04-21 15:15 | 42.41385 | 15.37245 | 34962 ft | 443 kts | 208° |
| 2026-04-21 15:16 | 42.35628 | 15.34255 | 34961 ft | 443 kts | 208° |
| 2026-04-21 15:16 | 42.29869 | 15.31259 | 34959 ft | 444 kts | 208° |
| 2026-04-21 15:17 | 42.24100 | 15.28273 | 34962 ft | 444 kts | 208° |
| 2026-04-21 15:17 | 42.18323 | 15.25288 | 34965 ft | 444 kts | 208° |
| 2026-04-21 15:18 | 42.12545 | 15.22310 | 34971 ft | 445 kts | 208° |
| 2026-04-21 15:18 | 42.06757 | 15.19337 | 34972 ft | 445 kts | 208° |
| 2026-04-21 15:19 | 42.00975 | 15.16363 | 34971 ft | 445 kts | 208° |
| 2026-04-21 15:19 | 41.95189 | 15.13390 | 34969 ft | 445 kts | 208° |
| 2026-04-21 15:20 | 41.89400 | 15.10431 | 34967 ft | 445 kts | 208° |
| 2026-04-21 15:20 | 41.83612 | 15.07482 | 34965 ft | 445 kts | 208° |
| 2026-04-21 15:21 | 41.77824 | 15.04529 | 34963 ft | 445 kts | 208° |
| 2026-04-21 15:21 | 41.72038 | 15.01581 | 34962 ft | 445 kts | 208° |
| 2026-04-21 15:22 | 41.66249 | 14.98640 | 34962 ft | 445 kts | 208° |
| 2026-04-21 15:22 | 41.60456 | 14.95713 | 34959 ft | 445 kts | 208° |
| 2026-04-21 15:23 | 41.54663 | 14.92783 | 34955 ft | 445 kts | 208° |
| 2026-04-21 15:23 | 41.48877 | 14.89858 | 34964 ft | 445 kts | 208° |
| 2026-04-21 15:24 | 41.44065 | 14.87432 | 34964 ft | 445 kts | 208° |
| 2026-04-21 15:24 | 41.38267 | 14.84522 | 34969 ft | 445 kts | 208° |
| 2026-04-21 15:25 | 41.32470 | 14.81611 | 34969 ft | 445 kts | 208° |
| 2026-04-21 15:25 | 41.26414 | 14.79496 | 34967 ft | 453 kts | 199° |
| 2026-04-21 15:26 | 41.20238 | 14.77799 | 34966 ft | 454 kts | 199° |
| 2026-04-21 15:26 | 41.14058 | 14.76097 | 34964 ft | 454 kts | 199° |
| 2026-04-21 15:27 | 41.07871 | 14.74395 | 34972 ft | 454 kts | 199° |
| 2026-04-21 15:27 | 41.01683 | 14.72696 | 34970 ft | 454 kts | 199° |
| 2026-04-21 15:28 | 40.95492 | 14.70989 | 34967 ft | 455 kts | 199° |
| 2026-04-21 15:28 | 40.89297 | 14.69282 | 34966 ft | 454 kts | 199° |
| 2026-04-21 15:29 | 40.83106 | 14.67590 | 34969 ft | 455 kts | 198° |
| 2026-04-21 15:29 | 40.76910 | 14.65892 | 34965 ft | 454 kts | 199° |
| 2026-04-21 15:30 | 40.70721 | 14.64189 | 34970 ft | 455 kts | 199° |
| 2026-04-21 15:30 | 40.64530 | 14.62504 | 34966 ft | 454 kts | 198° |
| 2026-04-21 15:31 | 40.58335 | 14.60826 | 34967 ft | 454 kts | 198° |
| 2026-04-21 15:31 | 40.52144 | 14.59143 | 34969 ft | 454 kts | 199° |
| 2026-04-21 15:32 | 40.45950 | 14.57459 | 34972 ft | 455 kts | 198° |
| 2026-04-21 15:32 | 40.39750 | 14.55784 | 34971 ft | 455 kts | 198° |
| 2026-04-21 15:33 | 40.33557 | 14.54108 | 34970 ft | 454 kts | 198° |
| 2026-04-21 15:33 | 40.27364 | 14.52440 | 34969 ft | 454 kts | 198° |
| 2026-04-21 15:34 | 40.21166 | 14.50773 | 34969 ft | 455 kts | 198° |
| 2026-04-21 15:34 | 40.14970 | 14.49111 | 34972 ft | 455 kts | 198° |
| 2026-04-21 15:35 | 40.08769 | 14.47445 | 34972 ft | 455 kts | 198° |
| 2026-04-21 15:35 | 40.02564 | 14.45783 | 34971 ft | 455 kts | 198° |
| 2026-04-21 15:36 | 39.96360 | 14.44128 | 34971 ft | 455 kts | 198° |
| 2026-04-21 15:36 | 39.90161 | 14.42475 | 34974 ft | 455 kts | 198° |
| 2026-04-21 15:37 | 39.83959 | 14.40818 | 34976 ft | 455 kts | 198° |
| 2026-04-21 15:37 | 39.77762 | 14.39168 | 34976 ft | 455 kts | 198° |
| 2026-04-21 15:38 | 39.71609 | 14.37536 | 34975 ft | 454 kts | 198° |
| 2026-04-21 15:38 | 39.65413 | 14.35898 | 34973 ft | 454 kts | 198° |
| 2026-04-21 15:39 | 39.59216 | 14.34272 | 34967 ft | 455 kts | 198° |
| 2026-04-21 15:39 | 39.53011 | 14.32636 | 34962 ft | 455 kts | 198° |
| 2026-04-21 15:40 | 39.46811 | 14.30997 | 34959 ft | 455 kts | 198° |
| 2026-04-21 15:40 | 39.40615 | 14.29371 | 34947 ft | 454 kts | 198° |
| 2026-04-21 15:41 | 39.34411 | 14.27756 | 34949 ft | 455 kts | 198° |
| 2026-04-21 15:41 | 39.28020 | 14.27196 | 34951 ft | 470 kts | 180° |
| 2026-04-21 15:42 | 39.21521 | 14.28434 | 34944 ft | 473 kts | 177° |
| 2026-04-21 15:42 | 39.15014 | 14.29718 | 34948 ft | 473 kts | 177° |
| 2026-04-21 15:43 | 39.08505 | 14.30979 | 34951 ft | 473 kts | 177° |
| 2026-04-21 15:43 | 39.01995 | 14.32229 | 34951 ft | 473 kts | 177° |
| 2026-04-21 15:44 | 38.95478 | 14.33489 | 34948 ft | 474 kts | 177° |
| 2026-04-21 15:44 | 38.88953 | 14.34762 | 34822 ft | 475 kts | 176° |
| 2026-04-21 15:45 | 38.85668 | 14.35399 | 33986 ft | 481 kts | 177° |
| 2026-04-21 15:45 | 38.82357 | 14.36035 | 33396 ft | 480 kts | 177° |
| 2026-04-21 15:45 | 38.79066 | 14.36667 | 32875 ft | 477 kts | 176° |
| 2026-04-21 15:45 | 38.75798 | 14.37298 | 32328 ft | 471 kts | 176° |
| 2026-04-21 15:46 | 38.72595 | 14.37924 | 31809 ft | 461 kts | 177° |
| 2026-04-21 15:46 | 38.69435 | 14.38540 | 31272 ft | 459 kts | 176° |
| 2026-04-21 15:46 | 38.66243 | 14.39156 | 30735 ft | 457 kts | 177° |
| 2026-04-21 15:46 | 38.63109 | 14.39754 | 30211 ft | 454 kts | 177° |
| 2026-04-21 15:47 | 38.59991 | 14.40345 | 29689 ft | 452 kts | 177° |
| 2026-04-21 15:47 | 38.56894 | 14.40935 | 29173 ft | 449 kts | 176° |
| 2026-04-21 15:47 | 38.53812 | 14.41525 | 28659 ft | 446 kts | 176° |
| 2026-04-21 15:47 | 38.50754 | 14.42109 | 28151 ft | 444 kts | 176° |
| 2026-04-21 15:48 | 38.47747 | 14.42681 | 27660 ft | 441 kts | 176° |
| 2026-04-21 15:48 | 38.44727 | 14.43255 | 27178 ft | 437 kts | 176° |
| 2026-04-21 15:48 | 38.41687 | 14.43836 | 26684 ft | 434 kts | 176° |
| 2026-04-21 15:48 | 38.38711 | 14.44404 | 26226 ft | 431 kts | 176° |
| 2026-04-21 15:49 | 38.35800 | 14.44966 | 25770 ft | 428 kts | 174° |
| 2026-04-21 15:49 | 38.32912 | 14.45887 | 25363 ft | 428 kts | 165° |
| 2026-04-21 15:49 | 38.30168 | 14.47356 | 24955 ft | 427 kts | 158° |
| 2026-04-21 15:49 | 38.27487 | 14.48960 | 24539 ft | 424 kts | 158° |
| 2026-04-21 15:50 | 38.24826 | 14.50546 | 24139 ft | 421 kts | 158° |
| 2026-04-21 15:50 | 38.22178 | 14.52117 | 23737 ft | 418 kts | 158° |
| 2026-04-21 15:50 | 38.19545 | 14.53674 | 23310 ft | 416 kts | 158° |
| 2026-04-21 15:50 | 38.16932 | 14.55220 | 22888 ft | 413 kts | 158° |
| 2026-04-21 15:51 | 38.14338 | 14.56754 | 22461 ft | 410 kts | 158° |
| 2026-04-21 15:51 | 38.11760 | 14.58274 | 22048 ft | 407 kts | 158° |
| 2026-04-21 15:51 | 38.09203 | 14.59782 | 21629 ft | 404 kts | 158° |
| 2026-04-21 15:51 | 38.06665 | 14.61280 | 21193 ft | 401 kts | 158° |
| 2026-04-21 15:52 | 38.04139 | 14.62770 | 20762 ft | 399 kts | 158° |
| 2026-04-21 15:52 | 38.01630 | 14.64247 | 20319 ft | 397 kts | 158° |
| 2026-04-21 15:52 | 37.99138 | 14.65709 | 19890 ft | 394 kts | 158° |
| 2026-04-21 15:52 | 37.96661 | 14.67162 | 19455 ft | 391 kts | 158° |
| 2026-04-21 15:53 | 37.94135 | 14.68348 | 18958 ft | 386 kts | 168° |
| 2026-04-21 15:53 | 37.91503 | 14.68916 | 18450 ft | 380 kts | 180° |
| 2026-04-21 15:53 | 37.88909 | 14.68755 | 18050 ft | 369 kts | 195° |
| 2026-04-21 15:53 | 37.86505 | 14.67782 | 17592 ft | 358 kts | 211° |
| 2026-04-21 15:54 | 37.84460 | 14.66080 | 17144 ft | 348 kts | 226° |
| 2026-04-21 15:54 | 37.82882 | 14.63829 | 16733 ft | 337 kts | 240° |
| 2026-04-21 15:54 | 37.81784 | 14.61252 | 16324 ft | 331 kts | 248° |
| 2026-04-21 15:54 | 37.80797 | 14.58642 | 15910 ft | 327 kts | 248° |
| 2026-04-21 15:55 | 37.79824 | 14.56071 | 15524 ft | 323 kts | 248° |
| 2026-04-21 15:55 | 37.78856 | 14.53518 | 15124 ft | 321 kts | 248° |
| 2026-04-21 15:55 | 37.77895 | 14.50987 | 14741 ft | 318 kts | 247° |
| 2026-04-21 15:55 | 37.76711 | 14.48624 | 14344 ft | 321 kts | 232° |
| 2026-04-21 15:56 | 37.75003 | 14.46801 | 13942 ft | 325 kts | 214° |
| 2026-04-21 15:56 | 37.72904 | 14.45733 | 13534 ft | 328 kts | 196° |
| 2026-04-21 15:56 | 37.70646 | 14.45536 | 13132 ft | 325 kts | 179° |
| 2026-04-21 15:56 | 37.68436 | 14.45782 | 12721 ft | 311 kts | 179° |
| 2026-04-21 15:57 | 37.66328 | 14.46042 | 12341 ft | 299 kts | 174° |
| 2026-04-21 15:57 | 37.64407 | 14.46950 | 12015 ft | 296 kts | 147° |
| 2026-04-21 15:57 | 37.63026 | 14.48844 | 11686 ft | 297 kts | 117° |
| 2026-04-21 15:57 | 37.62491 | 14.51322 | 11369 ft | 293 kts | 88° |
| 2026-04-21 15:58 | 37.62627 | 14.53884 | 11046 ft | 293 kts | 83° |
| 2026-04-21 15:58 | 37.62807 | 14.56435 | 10722 ft | 292 kts | 84° |
| 2026-04-21 15:58 | 37.62988 | 14.58980 | 10390 ft | 289 kts | 84° |
| 2026-04-21 15:58 | 37.63165 | 14.61472 | 10091 ft | 281 kts | 84° |
| 2026-04-21 15:59 | 37.63334 | 14.63895 | 9773 ft | 274 kts | 84° |
| 2026-04-21 15:59 | 37.63499 | 14.66279 | 9456 ft | 273 kts | 84° |
| 2026-04-21 15:59 | 37.63661 | 14.68653 | 9182 ft | 270 kts | 85° |
| 2026-04-21 15:59 | 37.63463 | 14.70972 | 8923 ft | 266 kts | 111° |
| 2026-04-21 16:00 | 37.62470 | 14.72905 | 8684 ft | 263 kts | 139° |
| 2026-04-21 16:00 | 37.60942 | 14.74038 | 8430 ft | 251 kts | 166° |
| 2026-04-21 16:00 | 37.59250 | 14.74391 | 8184 ft | 244 kts | 175° |
| 2026-04-21 16:00 | 37.57571 | 14.74660 | 7937 ft | 243 kts | 175° |
| 2026-04-21 16:01 | 37.55914 | 14.74611 | 7681 ft | 236 kts | 199° |
| 2026-04-21 16:01 | 37.54541 | 14.73571 | 7438 ft | 230 kts | 229° |
| 2026-04-21 16:01 | 37.53787 | 14.71844 | 7187 ft | 227 kts | 258° |
| 2026-04-21 16:01 | 37.53586 | 14.69873 | 6958 ft | 227 kts | 264° |
| 2026-04-21 16:02 | 37.53415 | 14.67898 | 6711 ft | 226 kts | 264° |
| 2026-04-21 16:02 | 37.53244 | 14.65933 | 6467 ft | 225 kts | 264° |
| 2026-04-21 16:02 | 37.53073 | 14.63972 | 6256 ft | 225 kts | 264° |
| 2026-04-21 16:02 | 37.52903 | 14.62014 | 6077 ft | 225 kts | 264° |
| 2026-04-21 16:03 | 37.52734 | 14.60056 | 5893 ft | 225 kts | 264° |
| 2026-04-21 16:03 | 37.52562 | 14.58100 | 5691 ft | 224 kts | 264° |
| 2026-04-21 16:03 | 37.52389 | 14.56146 | 5555 ft | 225 kts | 264° |
| 2026-04-21 16:03 | 37.52216 | 14.54192 | 5431 ft | 225 kts | 264° |
| 2026-04-21 16:04 | 37.52043 | 14.52238 | 5309 ft | 224 kts | 264° |
| 2026-04-21 16:04 | 37.51871 | 14.50286 | 5183 ft | 224 kts | 264° |
| 2026-04-21 16:04 | 37.51697 | 14.48360 | 5082 ft | 224 kts | 263° |
| 2026-04-21 16:04 | 37.51423 | 14.46411 | 5003 ft | 223 kts | 247° |
| 2026-04-21 16:05 | 37.50463 | 14.44897 | 5023 ft | 226 kts | 214° |
| 2026-04-21 16:05 | 37.48993 | 14.44323 | 5017 ft | 230 kts | 180° |
| 2026-04-21 16:05 | 37.47396 | 14.44512 | 5018 ft | 231 kts | 175° |
| 2026-04-21 16:05 | 37.45798 | 14.44746 | 5026 ft | 231 kts | 175° |
| 2026-04-21 16:06 | 37.44201 | 14.44984 | 5022 ft | 231 kts | 173° |
| 2026-04-21 16:06 | 37.42714 | 14.45707 | 5013 ft | 234 kts | 142° |
| 2026-04-21 16:06 | 37.41781 | 14.47364 | 5013 ft | 236 kts | 107° |
| 2026-04-21 16:06 | 37.41726 | 14.49411 | 5014 ft | 238 kts | 80° |
| 2026-04-21 16:07 | 37.41971 | 14.51476 | 5015 ft | 239 kts | 83° |
| 2026-04-21 16:07 | 37.42158 | 14.53554 | 5010 ft | 239 kts | 84° |
| 2026-04-21 16:07 | 37.42326 | 14.55632 | 5012 ft | 239 kts | 84° |
| 2026-04-21 16:07 | 37.42481 | 14.57711 | 5015 ft | 239 kts | 85° |
| 2026-04-21 16:08 | 37.42753 | 14.61194 | 5013 ft | 239 kts | 83° |
| 2026-04-21 16:08 | 37.42937 | 14.63275 | 5013 ft | 239 kts | 83° |
| 2026-04-21 16:08 | 37.43118 | 14.65322 | 5021 ft | 238 kts | 83° |
| 2026-04-21 16:09 | 37.43297 | 14.67360 | 4940 ft | 228 kts | 84° |
| 2026-04-21 16:09 | 37.43467 | 14.69296 | 4779 ft | 219 kts | 84° |
| 2026-04-21 16:09 | 37.43632 | 14.71184 | 4536 ft | 216 kts | 84° |
| 2026-04-21 16:09 | 37.43796 | 14.73065 | 4295 ft | 216 kts | 84° |
| 2026-04-21 16:10 | 37.43959 | 14.74933 | 4082 ft | 213 kts | 83° |
| 2026-04-21 16:10 | 37.44121 | 14.76797 | 3936 ft | 214 kts | 84° |
| 2026-04-21 16:10 | 37.44283 | 14.78661 | 3785 ft | 215 kts | 84° |
| 2026-04-21 16:10 | 37.44443 | 14.80514 | 3642 ft | 208 kts | 84° |
| 2026-04-21 16:11 | 37.44598 | 14.82298 | 3576 ft | 205 kts | 84° |
| 2026-04-21 16:11 | 37.44752 | 14.84078 | 3346 ft | 204 kts | 84° |
| 2026-04-21 16:11 | 37.44904 | 14.85847 | 3086 ft | 203 kts | 84° |
| 2026-04-21 16:11 | 37.45056 | 14.87612 | 2816 ft | 203 kts | 85° |
| 2026-04-21 16:12 | 37.45208 | 14.89370 | 2544 ft | 202 kts | 85° |
| 2026-04-21 16:12 | 37.45358 | 14.91108 | 2275 ft | 196 kts | 85° |
| 2026-04-21 16:12 | 37.45501 | 14.92780 | 2031 ft | 188 kts | 85° |
| 2026-04-21 16:12 | 37.45636 | 14.94360 | 1802 ft | 176 kts | 85° |
| 2026-04-21 16:13 | 37.45765 | 14.95873 | 1561 ft | 171 kts | 85° |
| 2026-04-21 16:13 | 37.45892 | 14.97353 | 1325 ft | 171 kts | 85° |
| 2026-04-21 16:13 | 37.46014 | 14.98821 | 1114 ft | 165 kts | 83° |
| 2026-04-21 16:13 | 37.46133 | 15.00211 | 937 ft | 153 kts | 84° |
| 2026-04-21 16:14 | 37.46249 | 15.01519 | 712 ft | 148 kts | 83° |
| 2026-04-21 16:14 | 37.46358 | 15.02806 | 506 ft | 147 kts | 83° |
| 2026-04-21 16:14 | 37.46466 | 15.04087 | 307 ft | 147 kts | 83° |
| 2026-04-21 16:14 | 37.46572 | 15.05369 | 106 ft | 148 kts | 83° |
| 2026-04-21 16:15 | 37.46675 | 15.06579 | 52 ft | 122 kts | 84° |
| 2026-04-21 16:15 | 37.46744 | 15.07422 | 52 ft | 72 kts | 84° |
| 2026-04-21 16:15 | 37.46774 | 15.07783 | 52 ft | 21 kts | 84° |
| 2026-04-21 16:15 | 37.46787 | 15.07938 | 51 ft | 18 kts | 83° |
| 2026-04-21 16:16 | 37.46820 | 15.08066 | 51 ft | 14 kts | 47° |
| 2026-04-21 16:16 | 37.46906 | 15.08085 | 51 ft | 8 kts | 351° |
| 2026-04-21 16:16 | 37.46953 | 15.08049 | 48 ft | 8 kts | 303° |
| 2026-04-21 16:16 | 37.46956 | 15.07973 | 51 ft | 9 kts | 264° |
| 2026-04-21 16:17 | 37.46948 | 15.07885 | 51 ft | 11 kts | 264° |
| 2026-04-21 16:17 | 37.46941 | 15.07787 | 52 ft | 12 kts | 264° |
| 2026-04-21 16:17 | 37.46932 | 15.07680 | 52 ft | 13 kts | 264° |
| 2026-04-21 16:17 | 37.46922 | 15.07563 | 52 ft | 14 kts | 264° |
| 2026-04-21 16:18 | 37.46911 | 15.07437 | 51 ft | 15 kts | 263° |
| 2026-04-21 16:18 | 37.46899 | 15.07300 | 51 ft | 16 kts | 264° |
| 2026-04-21 16:18 | 37.46887 | 15.07154 | 51 ft | 17 kts | 264° |
| 2026-04-21 16:18 | 37.46874 | 15.06999 | 51 ft | 18 kts | 264° |
| 2026-04-21 16:19 | 37.46861 | 15.06838 | 51 ft | 18 kts | 265° |
| 2026-04-21 16:19 | 37.46849 | 15.06693 | 48 ft | 15 kts | 263° |
| 2026-04-21 16:19 | 37.46838 | 15.06570 | 51 ft | 12 kts | 264° |
| 2026-04-21 16:19 | 37.46831 | 15.06475 | 51 ft | 10 kts | 264° |
| 2026-04-21 16:20 | 37.46829 | 15.06431 | 51 ft | 0 kts | 270° |
| 2026-04-21 16:20 | 37.46829 | 15.06429 | 51 ft | 1 kts | 270° |